»·PEaware :: N5157Z KLAS-KABQ

N5157Z :: KLAS-KABQ

FLIGHT INFORMATION

Flight Status: Arrived
Operator: Privately registered:
United States
More flights under this callsign
Pilot: Matt L. (27725)
Aircraft: BEECH AIRCRAFT BARON
(BE58)
More flights by this aircraft type
Origin: KLAS McCarran Intl
United States
Destination: KABQ Albuquerque Intl Sunport
United States
More flights between these airports :: More routes between these airports
Route: +BLD V105 PRFUM PGS V291 INW V12 ABQ
File this flight plan on PilotEdge
Remarks:
Altitude:
(Current/Filed)
11,000ft
Speed:
(Current/Filed)
170kts
Departed: 13-Mar-20 02:38 PM
Arrived: 13-Mar-20 05:06 PM
Distance/Time
Traveled:
421nm/2:28
Distance/Time
To Go:
Arrived

Flight Plot

Page will automatically refresh every two minutes.

Flight plan parsing failed; only flown route is shown


Map Options




Map Legend


Flown Route
Filed Route
Departure Airport
Arrival Airport
Navaid (VOR, NDB)
Fix

Horizontal Profiles

Position Reports

Time Latitude Longitude Heading Altitude Ground
Speed
13-Mar-20 13:54 36.081235 -115.170541 89 2185ft 0kts
13-Mar-20 13:55 36.081235 -115.170541 89 2185ft 0kts
13-Mar-20 13:56 36.081235 -115.170541 89 2185ft 0kts
13-Mar-20 13:57 36.081235 -115.170541 89 2185ft 0kts
13-Mar-20 13:58 36.081235 -115.170541 89 2185ft 0kts
13-Mar-20 13:59 36.081235 -115.170541 89 2185ft 0kts
13-Mar-20 14:00 36.081235 -115.170541 89 2185ft 0kts
13-Mar-20 14:01 36.081235 -115.170541 89 2185ft 0kts
13-Mar-20 14:02 36.081235 -115.170541 89 2185ft 0kts
13-Mar-20 14:03 36.081235 -115.170541 89 2185ft 0kts
13-Mar-20 14:04 36.081235 -115.170541 89 2185ft 0kts
13-Mar-20 14:05 36.081235 -115.170541 89 2185ft 0kts
13-Mar-20 14:06 36.081235 -115.170541 89 2185ft 0kts
13-Mar-20 14:07 36.081235 -115.170541 89 2185ft 0kts
13-Mar-20 14:08 36.081235 -115.170541 89 2185ft 0kts
13-Mar-20 14:09 36.081235 -115.170541 89 2185ft 0kts
13-Mar-20 14:10 36.081235 -115.170541 89 2185ft 0kts
13-Mar-20 14:11 36.081235 -115.170541 89 2185ft 0kts
13-Mar-20 14:12 36.081235 -115.170541 89 2185ft 0kts
13-Mar-20 14:13 36.081235 -115.170541 89 2185ft 0kts
13-Mar-20 14:14 36.081235 -115.170541 89 2185ft 0kts
13-Mar-20 14:15 36.081235 -115.170541 89 2185ft 0kts
13-Mar-20 14:16 36.081235 -115.170541 89 2185ft 0kts
13-Mar-20 14:17 36.081235 -115.170541 89 2185ft 0kts
13-Mar-20 14:18 36.081235 -115.170541 89 2185ft 0kts
13-Mar-20 14:19 36.081235 -115.170541 89 2185ft 0kts
13-Mar-20 14:20 36.081235 -115.170541 89 2185ft 0kts
13-Mar-20 14:21 36.081235 -115.170541 89 2185ft 0kts
13-Mar-20 14:22 36.081235 -115.170541 89 2185ft 0kts
13-Mar-20 14:23 36.081235 -115.170541 89 2185ft 0kts
13-Mar-20 14:24 36.081235 -115.170541 89 2185ft 0kts
13-Mar-20 14:25 36.081235 -115.170541 89 2185ft 0kts
13-Mar-20 14:26 36.081235 -115.170541 89 2185ft 0kts
13-Mar-20 14:27 36.081235 -115.170541 89 2185ft 0kts
13-Mar-20 14:28 36.081235 -115.170541 89 2185ft 0kts
13-Mar-20 14:29 36.081235 -115.170541 89 2185ft 0kts
13-Mar-20 14:30 36.081235 -115.170541 89 2185ft 0kts
13-Mar-20 14:31 36.081235 -115.170541 89 2185ft 0kts
13-Mar-20 14:32 36.081235 -115.170541 89 2185ft 0kts
13-Mar-20 14:33 36.081225 -115.169617 73 2185ft 14kts
13-Mar-20 14:34 36.085441 -115.166967 24 2185ft 29kts
13-Mar-20 14:35 36.093383 -115.161511 20 2185ft 29kts
13-Mar-20 14:36 36.099447 -115.158075 24 2185ft 22kts
13-Mar-20 14:37 36.095271 -115.158964 205 2185ft 86kts
13-Mar-20 14:38 36.070769 -115.166803 188 3452ft 90kts
13-Mar-20 14:39 36.043732 -115.169914 188 4564ft 100kts
13-Mar-20 14:40 36.015320 -115.173131 191 5621ft 105kts
13-Mar-20 14:41 35.985757 -115.177431 189 6583ft 109kts
13-Mar-20 14:42 35.966935 -115.153082 102 7460ft 127kts
13-Mar-20 14:43 35.962631 -115.108910 101 8261ft 130kts
13-Mar-20 14:44 35.959946 -115.063740 107 9015ft 136kts
13-Mar-20 14:45 35.956906 -115.017475 102 9909ft 136kts
13-Mar-20 14:46 35.953803 -114.964318 101 10047ft 173kts
13-Mar-20 14:47 35.949894 -114.903358 101 10086ft 184kts
13-Mar-20 14:48 35.945656 -114.840477 101 10020ft 179kts
13-Mar-20 14:49 35.941930 -114.780228 101 10038ft 171kts
13-Mar-20 14:50 35.927383 -114.727915 130 10002ft 161kts
13-Mar-20 14:51 35.903375 -114.681899 130 10047ft 158kts
13-Mar-20 14:52 35.879205 -114.636247 131 10286ft 157kts
13-Mar-20 14:53 35.855208 -114.591097 131 10753ft 156kts
13-Mar-20 14:54 35.831148 -114.546040 132 11092ft 161kts
13-Mar-20 14:55 35.805374 -114.497822 131 11106ft 174kts
13-Mar-20 14:56 35.778704 -114.447849 131 11066ft 175kts
13-Mar-20 14:57 35.752113 -114.398090 131 10959ft 170kts
13-Mar-20 14:58 35.726551 -114.350356 131 10990ft 165kts
13-Mar-20 14:59 35.701550 -114.303746 132 11067ft 161kts
13-Mar-20 15:00 35.676646 -114.257446 132 11093ft 162kts
13-Mar-20 15:01 35.651524 -114.210748 132 11101ft 164kts
13-Mar-20 15:02 35.625993 -114.163392 132 11138ft 169kts
13-Mar-20 15:03 35.599311 -114.113987 131 11121ft 176kts
13-Mar-20 15:04 35.571991 -114.063377 131 11091ft 179kts
13-Mar-20 15:05 35.544528 -114.012592 131 11094ft 178kts
13-Mar-20 15:06 35.517087 -113.961941 131 11090ft 178kts
13-Mar-20 15:07 35.520431 -113.899754 76 11109ft 197kts
13-Mar-20 15:08 35.538768 -113.835745 74 11106ft 198kts
13-Mar-20 15:09 35.557721 -113.771649 74 11096ft 199kts
13-Mar-20 15:10 35.576639 -113.707690 74 11099ft 199kts
13-Mar-20 15:11 35.595491 -113.643824 74 11097ft 199kts
13-Mar-20 15:12 35.614374 -113.579696 74 11098ft 199kts
13-Mar-20 15:13 35.616741 -113.515962 111 11099ft 186kts
13-Mar-20 15:14 35.602527 -113.454799 113 11098ft 186kts
13-Mar-20 15:15 35.587576 -113.393987 114 11092ft 186kts
13-Mar-20 15:17 35.572479 -113.333023 114 11082ft 186kts
13-Mar-20 15:18 35.557221 -113.271587 114 11015ft 186kts
13-Mar-20 15:19 35.542121 -113.210972 114 11022ft 185kts
13-Mar-20 15:20 35.527002 -113.150431 114 11030ft 184kts
13-Mar-20 15:21 35.511881 -113.090019 114 11030ft 185kts
13-Mar-20 15:22 35.496675 -113.029408 114 11029ft 186kts
13-Mar-20 15:23 35.481398 -112.968603 114 11033ft 187kts
13-Mar-20 15:24 35.465937 -112.907250 115 11027ft 189kts
13-Mar-20 15:25 35.450352 -112.845593 115 11024ft 191kts
13-Mar-20 15:26 35.434588 -112.783304 115 11029ft 192kts
13-Mar-20 15:27 35.418728 -112.720903 115 11031ft 192kts
13-Mar-20 15:28 35.402812 -112.658311 115 11025ft 193kts
13-Mar-20 15:29 35.386656 -112.595077 115 10973ft 194kts
13-Mar-20 15:30 35.370602 -112.532249 115 10969ft 193kts
13-Mar-20 15:31 35.354508 -112.469424 115 10978ft 192kts
13-Mar-20 15:32 35.338487 -112.407121 115 10978ft 193kts
13-Mar-20 15:33 35.322338 -112.344466 115 10982ft 194kts
13-Mar-20 15:34 35.306203 -112.281967 116 10988ft 191kts
13-Mar-20 15:35 35.290143 -112.219876 116 10985ft 191kts
13-Mar-20 15:35 35.276704 -112.168113 116 10995ft 191kts
13-Mar-20 15:36 35.260579 -112.106137 116 10989ft 191kts
13-Mar-20 15:38 35.241707 -112.033741 116 10995ft 191kts
13-Mar-20 15:38 35.228204 -111.982034 116 10997ft 191kts
13-Mar-20 15:39 35.212058 -111.920347 116 10993ft 190kts
13-Mar-20 15:41 35.193145 -111.848287 116 10998ft 190kts
13-Mar-20 15:41 35.179718 -111.797275 116 10996ft 189kts
13-Mar-20 15:42 35.163534 -111.735895 116 10996ft 189kts
13-Mar-20 15:43 35.147929 -111.674501 107 10985ft 194kts
13-Mar-20 15:44 35.141094 -111.608646 104 10993ft 195kts
13-Mar-20 15:45 35.134837 -111.542737 104 10996ft 196kts
13-Mar-20 15:46 35.128535 -111.476460 103 10997ft 196kts
13-Mar-20 15:47 35.122217 -111.410354 103 10997ft 196kts
13-Mar-20 15:48 35.115846 -111.344085 104 10994ft 196kts
13-Mar-20 15:49 35.109469 -111.278111 104 10988ft 195kts
13-Mar-20 15:50 35.103046 -111.212073 105 10984ft 195kts
13-Mar-20 15:51 35.096591 -111.146129 105 10985ft 196kts
13-Mar-20 15:52 35.090085 -111.080016 105 10987ft 196kts
13-Mar-20 15:53 35.083526 -111.013817 104 10987ft 196kts
13-Mar-20 15:54 35.076978 -110.948056 104 10982ft 194kts
13-Mar-20 15:55 35.070446 -110.882734 104 10976ft 194kts
13-Mar-20 15:56 35.063907 -110.817678 104 10998ft 192kts
13-Mar-20 15:57 35.059433 -110.752361 100 11000ft 194kts
13-Mar-20 15:58 35.055960 -110.686520 100 10995ft 195kts
13-Mar-20 15:59 35.052486 -110.620628 100 10996ft 195kts
13-Mar-20 16:00 35.048968 -110.554726 100 10993ft 195kts
13-Mar-20 16:01 35.045425 -110.488693 100 11002ft 195kts
13-Mar-20 16:02 35.041823 -110.422778 100 11002ft 195kts
13-Mar-20 16:03 35.038199 -110.356823 100 11012ft 194kts
13-Mar-20 16:04 35.034531 -110.290885 101 11005ft 193kts
13-Mar-20 16:05 35.030864 -110.225284 101 11004ft 193kts
13-Mar-20 16:06 35.027143 -110.159646 101 10995ft 194kts
13-Mar-20 16:07 35.023420 -110.094377 101 11019ft 192kts
13-Mar-20 16:08 35.019652 -110.029158 101 11024ft 192kts
13-Mar-20 16:09 35.015874 -109.964330 101 11033ft 191kts
13-Mar-20 16:10 35.012084 -109.899776 101 11032ft 191kts
13-Mar-20 16:11 35.008239 -109.835170 101 11022ft 192kts
13-Mar-20 16:12 35.004340 -109.770068 101 11019ft 192kts
13-Mar-20 16:13 35.000394 -109.704584 101 10996ft 194kts
13-Mar-20 16:15 34.995717 -109.627808 101 10994ft 194kts
13-Mar-20 16:15 34.992346 -109.573120 101 10995ft 194kts
13-Mar-20 16:16 34.988274 -109.507459 101 10995ft 194kts
13-Mar-20 16:17 34.984162 -109.441684 101 10994ft 194kts
13-Mar-20 16:18 34.980018 -109.376056 101 10999ft 194kts
13-Mar-20 16:19 34.975834 -109.310246 102 10988ft 193kts
13-Mar-20 16:20 34.971646 -109.245081 102 10994ft 193kts
13-Mar-20 16:21 34.967415 -109.179825 102 10989ft 193kts
13-Mar-20 16:22 34.967576 -109.113764 93 10991ft 196kts
13-Mar-20 16:23 34.970335 -109.047179 93 11000ft 197kts
13-Mar-20 16:24 34.973155 -108.979955 93 11011ft 198kts
13-Mar-20 16:25 34.975942 -108.912535 93 11005ft 199kts
13-Mar-20 16:26 34.978678 -108.845104 92 11006ft 199kts
13-Mar-20 16:27 34.981406 -108.777494 92 11009ft 199kts
13-Mar-20 16:28 34.984089 -108.709981 92 11018ft 199kts
13-Mar-20 16:29 34.986738 -108.642289 92 11014ft 199kts
13-Mar-20 16:30 34.989347 -108.574586 92 11020ft 199kts
13-Mar-20 16:31 34.991909 -108.507025 92 11008ft 200kts
13-Mar-20 16:32 34.994443 -108.439556 92 11023ft 198kts
13-Mar-20 16:33 34.996938 -108.371864 92 11018ft 199kts
13-Mar-20 16:34 34.999344 -108.305645 93 11059ft 197kts
13-Mar-20 16:36 35.002124 -108.227292 93 11019ft 198kts
13-Mar-20 16:36 35.004082 -108.171771 92 11021ft 197kts
13-Mar-20 16:37 35.006402 -108.104954 92 11036ft 196kts
13-Mar-20 16:38 35.008681 -108.038420 93 11041ft 196kts
13-Mar-20 16:39 35.010893 -107.971605 92 11023ft 197kts
13-Mar-20 16:40 35.013105 -107.904804 92 11010ft 198kts
13-Mar-20 16:41 35.015302 -107.838218 93 11067ft 195kts
13-Mar-20 16:42 35.017437 -107.771654 93 11073ft 196kts
13-Mar-20 16:43 35.019487 -107.705026 92 11065ft 197kts
13-Mar-20 16:44 35.021573 -107.638416 93 11095ft 196kts
13-Mar-20 16:45 35.023614 -107.571593 93 11119ft 195kts
13-Mar-20 16:46 35.025554 -107.504864 92 11110ft 197kts
13-Mar-20 16:47 35.027513 -107.437856 93 11107ft 198kts
13-Mar-20 16:48 35.029438 -107.370223 92 11047ft 200kts
13-Mar-20 16:49 35.031336 -107.302295 93 10949ft 200kts
13-Mar-20 16:50 35.035368 -107.234204 90 10765ft 201kts
13-Mar-20 16:51 35.040185 -107.166508 90 10205ft 199kts
13-Mar-20 16:52 35.044810 -107.102264 90 9898ft 183kts
13-Mar-20 16:53 35.049042 -107.040165 90 9942ft 192kts
13-Mar-20 16:54 35.053637 -106.975003 90 9951ft 195kts
13-Mar-20 16:55 35.058192 -106.909064 91 9923ft 197kts
13-Mar-20 16:56 35.062719 -106.843079 91 10001ft 193kts
13-Mar-20 16:57 35.068487 -106.777766 77 10028ft 198kts
13-Mar-20 16:58 35.096504 -106.717715 64 9555ft 199kts
13-Mar-20 16:59 35.122067 -106.661140 64 9142ft 185kts
13-Mar-20 17:00 35.131453 -106.607295 116 8200ft 131kts
13-Mar-20 17:01 35.113369 -106.578701 171 7420ft 99kts
13-Mar-20 17:02 35.087199 -106.574410 193 6340ft 103kts
13-Mar-20 17:03 35.061316 -106.583133 225 6035ft 97kts
13-Mar-20 17:04 35.043598 -106.604740 225 5423ft 80kts
13-Mar-20 17:05 35.037615 -106.613470 310 5358ft 0kts
13-Mar-20 17:06 35.037160 -106.614735 221 5358ft 18kts
13-Mar-20 17:07 35.036771 -106.616519 153 5358ft 0kts

Navigation Log

Ident Type
Flight plan parsing failed, navigation log unavailable